Time;durP1;ratioP1;P1;durP2;ratioP2;P2;SDS_P1;SDS_P2;PMS_P1;PMS_P2;Temp;Humidity;BMP_temperature;BMP_pressure;BME280_temperature;BME280_humidity;BME280_pressure;Samples;Min_cycle;Max_cycle;Signal;HPM_P1;HPM_P2
2023/01/20 00:01:33;;;;;;;3.97;1.63;;;;;;;15.76;47.63;98815.50;4994352;28;20228;-65
2023/01/20 00:03:59;;;;;;;2.20;1.02;;;;;;;16.10;47.69;98808.81;4994122;28;20045;-65
2023/01/20 00:06:26;;;;;;;4.28;0.85;;;;;;;16.03;48.23;98816.91;4992999;28;20038;-65
2023/01/20 00:08:53;;;;;;;4.05;0.95;;;;;;;16.13;45.43;98809.19;4992088;28;20046;-65
2023/01/20 00:11:19;;;;;;;1.75;1.10;;;;;;;16.23;46.47;98820.19;4994971;28;20073;-65
2023/01/20 00:13:45;;;;;;;5.55;1.63;;;;;;;16.24;45.46;98819.16;4990412;28;20037;-65
2023/01/20 00:16:11;;;;;;;3.60;1.10;;;;;;;16.41;45.26;98815.91;4993914;28;20050;-66
2023/01/20 00:18:37;;;;;;;2.95;1.10;;;;;;;16.48;45.08;98803.28;4992319;28;20038;-66
2023/01/20 00:21:09;;;;;;;4.60;1.90;;;;;;;16.10;49.54;98782.13;4994006;28;20034;-65
2023/01/20 00:23:35;;;;;;;2.25;0.90;;;;;;;15.93;49.58;98777.34;4991864;28;20041;-65
2023/01/20 00:26:05;;;;;;;2.53;0.90;;;;;;;15.77;50.66;98775.25;4992999;28;20046;-65
2023/01/20 00:28:30;;;;;;;5.18;1.55;;;;;;;15.69;51.94;98788.03;4992951;28;20050;-65
2023/01/20 00:30:56;;;;;;;3.55;1.20;;;;;;;15.65;52.37;98806.34;4991455;28;20046;-65
2023/01/20 00:33:21;;;;;;;3.55;1.27;;;;;;;15.79;53.24;98818.53;4993846;28;20100;-65
2023/01/20 00:35:46;;;;;;;5.60;1.48;;;;;;;15.98;52.62;98805.25;4992438;28;20262;-65
2023/01/20 00:38:14;;;;;;;2.83;1.38;;;;;;;15.94;52.44;98789.66;4992188;28;20275;-66
2023/01/20 00:40:39;;;;;;;3.25;0.90;;;;;;;15.81;49.62;98764.94;4992808;28;20700;-66
2023/01/20 00:43:04;;;;;;;5.07;0.93;;;;;;;16.09;43.85;98789.31;4992055;28;20504;-65
2023/01/20 00:45:30;;;;;;;2.35;1.50;;;;;;;16.30;43.64;98788.06;4993305;28;20275;-65
2023/01/20 00:47:55;;;;;;;3.92;1.15;;;;;;;16.42;44.29;98793.50;4991337;28;20530;-65
2023/01/20 00:50:21;;;;;;;2.97;1.10;;;;;;;16.50;44.42;98799.34;4992813;28;20041;-65
2023/01/20 00:52:46;;;;;;;1.85;1.13;;;;;;;16.50;45.32;98774.50;4991952;28;20041;-66
2023/01/20 00:55:12;;;;;;;2.13;1.00;;;;;;;16.59;45.13;98776.63;4993863;28;20516;-67
2023/01/20 00:57:37;;;;;;;3.40;1.08;;;;;;;16.47;45.29;98772.25;4989964;28;20058;-65
2023/01/20 01:00:03;;;;;;;3.38;1.33;;;;;;;16.48;46.11;98811.31;4994420;28;20054;-66
2023/01/20 01:02:29;;;;;;;3.50;1.13;;;;;;;16.57;47.14;98810.78;4991592;28;20374;-65
2023/01/20 01:04:54;;;;;;;5.18;1.98;;;;;;;16.63;47.32;98821.63;4992663;28;20042;-65
2023/01/20 01:07:20;;;;;;;8.73;2.60;;;;;;;16.63;47.84;98832.31;5008810;28;20038;-66
2023/01/20 01:09:45;;;;;;;4.20;1.30;;;;;;;16.54;46.83;98829.94;4993367;28;20038;-65
2023/01/20 01:12:10;;;;;;;2.97;1.00;;;;;;;16.23;47.47;98852.25;4991503;28;20053;-65
2023/01/20 01:14:36;;;;;;;1.27;1.00;;;;;;;16.40;45.07;98836.47;4991295;28;20030;-66
2023/01/20 01:17:01;;;;;;;2.92;1.40;;;;;;;16.29;44.79;98834.53;4994106;28;20037;-66
2023/01/20 01:19:27;;;;;;;6.38;1.17;;;;;;;16.40;43.47;98831.13;4996620;28;20147;-65
2023/01/20 01:21:52;;;;;;;6.00;1.50;;;;;;;16.55;43.76;98830.75;4995685;28;20061;-65
2023/01/20 01:24:18;;;;;;;7.72;1.95;;;;;;;16.67;43.80;98849.59;4995951;28;20335;-65
2023/01/20 01:26:43;;;;;;;5.07;1.70;;;;;;;16.60;44.30;98860.31;4997222;28;20236;-66
2023/01/20 01:29:08;;;;;;;9.38;2.65;;;;;;;16.69;44.51;98868.91;4996153;28;20042;-65
2023/01/20 01:31:34;;;;;;;6.50;1.98;;;;;;;16.72;44.52;98868.47;4997332;28;20347;-65
2023/01/20 01:33:59;;;;;;;4.15;1.02;;;;;;;16.66;43.31;98867.50;4994967;28;20026;-65
2023/01/20 01:36:25;;;;;;;7.95;2.00;;;;;;;16.72;42.69;98837.19;4996280;28;20042;-65
2023/01/20 01:38:50;;;;;;;2.95;1.40;;;;;;;16.58;43.91;98860.53;4995222;28;20038;-66
2023/01/20 01:41:16;;;;;;;2.50;1.20;;;;;;;16.71;43.84;98881.00;4994441;28;20227;-67
2023/01/20 01:44:05;;;;;;;3.00;1.10;;;;;;;16.67;44.24;98889.69;4995942;28;20034;-65
2023/01/20 01:46:31;;;;;;;2.38;1.15;;;;;;;16.51;44.06;98875.00;4995164;28;20034;-65
2023/01/20 01:49:08;;;;;;;3.90;1.30;;;;;;;16.56;43.90;98880.50;4995445;28;20368;-65
2023/01/20 01:51:43;;;;;;;4.82;1.35;;;;;;;16.55;44.52;98866.31;4996085;28;20038;-65
2023/01/20 01:54:12;;;;;;;5.80;1.40;;;;;;;16.50;43.40;98860.81;4994217;28;20363;-65
2023/01/20 01:56:40;;;;;;;5.15;1.00;;;;;;;16.45;43.98;98825.09;4995618;28;20255;-65
2023/01/20 01:59:07;;;;;;;6.22;2.80;;;;;;;16.41;44.76;98814.06;4994225;28;20055;-65
2023/01/20 02:01:35;;;;;;;2.35;1.00;;;;;;;16.42;45.52;98830.91;4994487;28;20041;-65
2023/01/20 02:04:11;;;;;;;2.45;0.40;;;;;;;15.76;51.42;98834.19;4994361;28;20034;-66
2023/01/20 02:06:45;;;;;;;0.73;0.30;;;;;;;15.06;56.07;98844.81;4994674;28;20232;-66
2023/01/20 02:09:11;;;;;;;1.00;0.40;;;;;;;14.83;58.54;98852.50;4996910;28;20066;-65
2023/01/20 02:11:47;;;;;;;0.73;0.40;;;;;;;14.69;59.18;98804.59;4995987;28;20054;-65
2023/01/20 02:14:14;;;;;;;3.00;0.63;;;;;;;14.47;61.95;98858.34;4995005;28;20102;-65
2023/01/20 02:16:55;;;;;;;2.10;0.40;;;;;;;14.28;62.40;98828.03;4995820;28;20042;-65
2023/01/20 02:19:26;;;;;;;1.80;0.50;;;;;;;14.09;64.36;98821.72;4995933;28;20080;-65
2023/01/20 02:22:13;;;;;;;1.50;0.35;;;;;;;13.74;67.07;98832.59;4995436;28;20088;-65
2023/01/20 02:25:16;;;;;;;1.05;0.40;;;;;;;13.76;67.75;98874.94;4992980;28;20112;-65
2023/01/20 02:27:59;;;;;;;0.98;0.38;;;;;;;13.95;67.44;98892.75;4995460;28;20147;-66
2023/01/20 02:30:30;;;;;;;1.70;0.67;;;;;;;13.92;67.75;98890.50;4994204;28;20054;-66
2023/01/20 02:33:07;;;;;;;0.70;0.30;;;;;;;13.78;69.46;98877.41;4992466;28;20363;-65
2023/01/20 02:35:47;;;;;;;2.13;0.60;;;;;;;13.42;73.05;98851.97;4994072;28;20324;-65
2023/01/20 02:38:55;;;;;;;1.95;0.57;;;;;;;13.13;76.22;98865.56;4993240;28;20056;-65
2023/01/20 02:41:36;;;;;;;4.43;1.42;;;;;;;13.16;77.26;98907.69;4953021;28;20757;-65
2023/01/20 02:44:53;;;;;;;3.92;0.82;;;;;;;13.18;77.65;98909.16;4954358;29;20031;-65
2023/01/20 02:47:21;;;;;;;0.68;0.30;;;;;;;13.17;78.20;98928.78;4923257;28;20060;-66
2023/01/20 02:49:52;;;;;;;2.28;0.40;;;;;;;13.14;79.18;98942.44;4994290;28;20057;-66
2023/01/20 02:52:24;;;;;;;0.47;0.30;;;;;;;12.91;79.40;98924.13;4993610;28;20050;-65
2023/01/20 02:54:53;;;;;;;0.80;0.30;;;;;;;12.69;80.91;98920.75;4993237;28;20037;-64
2023/01/20 02:57:29;;;;;;;1.90;1.05;;;;;;;12.75;80.97;98930.59;4992426;28;20034;-65
2023/01/20 03:00:03;;;;;;;0.30;0.30;;;;;;;12.86;79.99;98907.16;4993113;28;20026;-65
2023/01/20 03:02:33;;;;;;;0.63;0.40;;;;;;;12.75;81.09;98892.59;4994210;28;20045;-66
2023/01/20 03:05:11;;;;;;;0.90;0.52;;;;;;;12.85;81.29;98885.06;4994521;28;20026;-66
2023/01/20 03:07:41;;;;;;;1.55;0.70;;;;;;;12.94;80.59;98880.41;4991558;28;20054;-65
2023/01/20 03:10:11;;;;;;;2.33;0.80;;;;;;;13.09;79.64;98883.75;4993417;28;20351;-65
2023/01/20 03:12:49;;;;;;;4.20;1.77;;;;;;;12.90;80.42;98857.91;4991221;28;20038;-65
2023/01/20 03:15:18;;;;;;;8.05;3.00;;;;;;;12.85;80.79;98860.34;4995340;28;20068;-65
2023/01/20 03:17:43;;;;;;;7.38;3.13;;;;;;;12.83;80.41;98886.28;4993759;28;20038;-65
2023/01/20 03:20:09;;;;;;;8.18;2.75;;;;;;;12.85;79.37;98881.59;4994441;28;20042;-65
2023/01/20 03:22:35;;;;;;;5.40;2.15;;;;;;;12.86;79.13;98869.94;4994045;28;20051;-65
2023/01/20 03:25:02;;;;;;;4.80;1.50;;;;;;;12.81;79.28;98867.88;4994424;28;20113;-66
2023/01/20 03:27:27;;;;;;;5.63;2.00;;;;;;;12.87;78.40;98876.91;4993268;28;20046;-66
2023/01/20 03:29:52;;;;;;;10.98;3.83;;;;;;;12.98;78.13;98889.63;4994013;28;20034;-65
2023/01/20 03:32:25;;;;;;;3.55;1.27;;;;;;;13.20;75.97;98882.38;4994135;28;20034;-65
2023/01/20 03:34:53;;;;;;;2.43;1.17;;;;;;;13.10;76.02;98872.09;4994820;28;20363;-65
2023/01/20 03:37:19;;;;;;;2.22;1.08;;;;;;;12.88;77.23;98859.94;4993419;28;20034;-65
2023/01/20 03:39:45;;;;;;;3.75;1.30;;;;;;;12.90;77.03;98869.34;4994681;28;20249;-65
2023/01/20 03:42:36;;;;;;;4.15;1.92;;;;;;;12.95;77.10;98871.41;4993217;28;20045;-65
2023/01/20 03:45:13;;;;;;;5.25;2.15;;;;;;;13.12;75.87;98848.78;4990530;28;20117;-65
2023/01/20 03:47:54;;;;;;;3.35;1.50;;;;;;;13.25;74.96;98848.84;4991845;28;20354;-64
2023/01/20 03:50:29;;;;;;;1.65;1.10;;;;;;;13.11;75.04;98836.50;4992678;28;20331;-66
2023/01/20 03:53:13;;;;;;;2.35;1.00;;;;;;;13.00;75.66;98829.94;4993175;28;20110;-65
2023/01/20 03:55:46;;;;;;;1.92;1.25;;;;;;;12.97;75.83;98848.13;4994234;28;20048;-65
2023/01/20 03:58:19;;;;;;;;;;;;;;;12.97;75.97;98837.50;4993529;28;20049;-65
2023/01/20 04:00:47;;;;;;;22.88;6.25;;;;;;;13.00;76.11;98831.78;4990535;28;19925;-65
2023/01/20 04:03:18;;;;;;;7.18;2.40;;;;;;;13.07;75.63;98822.81;5193119;22;20077;-63
2023/01/20 04:05:47;;;;;;;5.07;1.42;;;;;;;13.25;74.76;98818.78;4995466;28;20037;-63
2023/01/20 04:08:15;;;;;;;1.85;0.70;;;;;;;13.20;73.87;98818.56;4997571;28;20145;-63
2023/01/20 04:10:44;;;;;;;2.60;0.60;;;;;;;13.18;74.24;98832.06;4997214;28;20034;-63
2023/01/20 04:13:10;;;;;;;0.88;0.55;;;;;;;13.26;72.84;98837.19;4998030;28;20034;-65
2023/01/20 04:15:41;;;;;;;0.63;0.30;;;;;;;13.16;72.85;98819.97;4997330;28;20239;-65
2023/01/20 04:18:18;;;;;;;3.25;0.70;;;;;;;13.13;72.84;98813.22;4997931;28;20137;-62
2023/01/20 04:20:47;;;;;;;1.75;0.50;;;;;;;13.01;73.71;98801.53;4999225;28;20073;-64
2023/01/20 04:23:36;;;;;;;0.40;0.28;;;;;;;12.93;74.08;98799.06;4986109;28;20056;-62
2023/01/20 04:26:02;;;;;;;0.65;0.20;;;;;;;12.96;73.83;98794.16;4961670;28;20038;-64
2023/01/20 04:28:27;;;;;;;0.40;0.30;;;;;;;13.08;73.30;98803.19;4998513;28;20069;-65
2023/01/20 04:30:53;;;;;;;0.32;0.30;;;;;;;13.25;72.88;98790.38;4998365;28;20050;-65
2023/01/20 04:33:18;;;;;;;0.30;0.30;;;;;;;13.44;71.74;98791.41;4997690;28;20306;-63
2023/01/20 04:35:43;;;;;;;11.10;8.90;;;;;;;13.65;71.03;98777.13;4998892;28;20042;-63
2023/01/20 04:38:09;;;;;;;0.93;0.57;;;;;;;13.72;70.62;98765.47;4998728;28;20038;-64
2023/01/20 04:40:34;;;;;;;0.63;0.50;;;;;;;13.25;71.01;98768.28;4998789;28;20030;-64
2023/01/20 04:43:00;;;;;;;0.85;0.43;;;;;;;13.41;71.23;98765.22;4998492;28;20037;-65
2023/01/20 04:45:25;;;;;;;1.38;0.73;;;;;;;13.31;71.46;98762.97;4998749;28;20038;-66
2023/01/20 04:47:50;;;;;;;1.23;0.77;;;;;;;13.30;71.23;98765.84;4998753;28;20037;-63
2023/01/20 04:50:16;;;;;;;1.50;0.60;;;;;;;13.31;71.02;98772.78;4998582;28;20068;-63
2023/01/20 04:52:42;;;;;;;0.77;0.52;;;;;;;13.32;70.52;98771.75;5000043;28;20066;-63
2023/01/20 04:55:09;;;;;;;3.88;1.67;;;;;;;13.34;70.71;98767.06;5002577;28;20034;-63
2023/01/20 04:57:34;;;;;;;21.85;6.55;;;;;;;13.52;70.27;98769.94;4994331;28;20062;-62
2023/01/20 04:59:59;;;;;;;2.08;0.75;;;;;;;13.61;68.84;98762.59;4985049;28;20034;-64
2023/01/20 05:02:25;;;;;;;5.38;1.80;;;;;;;13.54;69.35;98754.63;4983364;28;20439;-63
2023/01/20 05:04:50;;;;;;;5.07;1.70;;;;;;;13.66;68.42;98730.88;4981893;28;20031;-63
2023/01/20 05:07:16;;;;;;;1.65;0.70;;;;;;;13.67;68.57;98724.53;4981070;28;20043;-65
2023/01/20 05:09:41;;;;;;;2.38;0.93;;;;;;;13.79;67.54;98722.06;4983478;28;20068;-64
2023/01/20 05:12:07;;;;;;;7.18;3.10;;;;;;;13.64;67.32;98714.31;4984192;28;20046;-63
2023/01/20 05:14:32;;;;;;;1.45;0.88;;;;;;;13.72;67.08;98722.88;4983639;28;20040;-63
2023/01/20 05:16:58;;;;;;;0.95;0.60;;;;;;;13.69;66.10;98717.16;4984005;28;20034;-63
2023/01/20 05:19:23;;;;;;;0.60;0.60;;;;;;;13.58;66.56;98718.63;4982322;28;20097;-63
2023/01/20 05:21:49;;;;;;;0.85;0.60;;;;;;;13.17;68.74;98716.13;4981484;28;20252;-63
2023/01/20 05:24:14;;;;;;;1.35;0.90;;;;;;;13.25;68.58;98721.25;4982529;28;20224;-64
2023/01/20 05:26:40;;;;;;;1.75;0.65;;;;;;;13.32;68.17;98713.28;4983206;28;20207;-65
2023/01/20 05:29:05;;;;;;;5.30;1.10;;;;;;;13.27;68.17;98713.06;4982808;28;20047;-65
2023/01/20 05:31:31;;;;;;;11.93;3.50;;;;;;;13.29;68.48;98701.22;4981682;28;20104;-63
2023/01/20 05:33:56;;;;;;;4.20;1.88;;;;;;;13.36;68.03;98702.03;4982589;28;20039;-63
2023/01/20 05:36:22;;;;;;;9.13;2.67;;;;;;;13.48;67.55;98696.09;4982704;28;20043;-63
2023/01/20 05:38:47;;;;;;;4.32;1.55;;;;;;;13.48;67.73;98698.75;4982972;28;20038;-64
2023/01/20 05:41:13;;;;;;;6.00;1.98;;;;;;;13.41;67.74;98690.78;4982401;28;20035;-66
2023/01/20 05:43:38;;;;;;;4.35;1.95;;;;;;;13.43;67.91;98688.72;4983080;28;20026;-65
2023/01/20 05:46:05;;;;;;;3.33;2.03;;;;;;;13.51;67.72;98685.03;4982259;28;20047;-63
2023/01/20 05:48:31;;;;;;;11.82;5.53;;;;;;;13.38;66.55;98672.56;4982952;28;20034;-63
2023/01/20 05:50:56;;;;;;;15.07;6.47;;;;;;;13.40;67.15;98667.88;4983300;28;20239;-63
2023/01/20 05:53:22;;;;;;;5.57;2.20;;;;;;;13.19;67.73;98665.44;4984044;28;20518;-63
2023/01/20 05:55:47;;;;;;;6.78;2.80;;;;;;;13.35;67.11;98670.31;4982196;28;20034;-64
2023/01/20 05:58:13;;;;;;;5.45;2.80;;;;;;;13.43;66.48;98678.09;4982605;28;20331;-63
2023/01/20 06:00:39;;;;;;;4.22;2.80;;;;;;;13.53;66.43;98675.03;4982399;28;20039;-63
2023/01/20 06:03:05;;;;;;;5.53;2.30;;;;;;;13.43;66.04;98665.63;4981046;28;20365;-63
2023/01/20 06:05:30;;;;;;;4.97;2.33;;;;;;;13.15;66.96;98665.00;4982022;28;20268;-64
2023/01/20 06:07:56;;;;;;;4.25;2.40;;;;;;;13.22;66.59;98670.34;4982872;28;20040;-63
2023/01/20 06:10:26;;;;;;;2.92;2.00;;;;;;;13.36;66.85;98669.31;4982098;28;20069;-64
2023/01/20 06:12:53;;;;;;;3.78;1.90;;;;;;;13.01;68.13;98664.16;4982026;28;20049;-63
2023/01/20 06:15:18;;;;;;;3.60;1.98;;;;;;;12.69;68.92;98638.38;4981580;28;20313;-63
2023/01/20 06:17:44;;;;;;;7.15;3.92;;;;;;;12.06;73.20;98651.88;4986783;28;20048;-62
2023/01/20 06:20:10;;;;;;;7.57;4.70;;;;;;;11.89;75.60;98632.00;4983090;28;20035;-62
2023/01/20 06:22:36;;;;;;;9.75;5.60;;;;;;;11.76;78.31;98638.03;4981536;28;20068;-63
2023/01/20 06:25:02;;;;;;;10.73;4.65;;;;;;;11.94;81.13;98634.88;4981629;28;20058;-63
2023/01/20 06:27:27;;;;;;;8.82;4.78;;;;;;;12.17;79.64;98631.91;4981681;28;20213;-64
2023/01/20 06:29:53;;;;;;;12.60;5.03;;;;;;;12.25;79.20;98650.31;4982914;28;20037;-65
2023/01/20 06:32:18;;;;;;;7.55;4.53;;;;;;;12.36;78.88;98635.63;4980958;28;20061;-62
2023/01/20 06:34:44;;;;;;;10.10;4.63;;;;;;;12.47;78.54;98648.31;4981943;28;20045;-63
2023/01/20 06:37:10;;;;;;;8.15;4.78;;;;;;;12.62;76.89;98624.28;4981888;28;20362;-63
2023/01/20 06:39:36;;;;;;;9.57;5.32;;;;;;;12.78;76.71;98645.97;4980966;28;20043;-64
2023/01/20 06:42:02;;;;;;;9.32;4.63;;;;;;;12.94;74.67;98646.59;4981422;28;20031;-64
2023/01/20 06:44:28;;;;;;;9.05;3.53;;;;;;;13.09;74.24;98656.00;4981387;28;20216;-64
2023/01/20 06:46:53;;;;;;;9.45;4.18;;;;;;;13.20;73.93;98643.13;4981242;28;20042;-62
2023/01/20 06:49:18;;;;;;;11.45;5.70;;;;;;;13.32;73.91;98666.25;4980844;28;20335;-63
2023/01/20 06:51:46;;;;;;;8.20;5.18;;;;;;;13.34;73.34;98669.50;4980784;28;20046;-62
2023/01/20 06:54:12;;;;;;;8.38;4.20;;;;;;;13.45;72.65;98676.03;4981346;28;20053;-63
2023/01/20 06:56:37;;;;;;;11.25;5.43;;;;;;;13.54;73.80;98661.53;4980762;28;20229;-63
2023/01/20 06:59:02;;;;;;;10.27;5.82;;;;;;;13.70;72.48;98662.94;4981041;28;20305;-65
2023/01/20 07:01:29;;;;;;;10.07;5.80;;;;;;;13.81;73.02;98653.50;4981372;28;20363;-65
2023/01/20 07:03:55;;;;;;;11.93;5.60;;;;;;;13.82;74.18;98657.78;4982366;28;20134;-63
2023/01/20 07:06:24;;;;;;;9.50;4.93;;;;;;;13.88;74.72;98662.28;4981373;28;20042;-63
2023/01/20 07:08:50;;;;;;;10.23;5.10;;;;;;;13.78;75.28;98657.38;4980450;28;20035;-63
2023/01/20 07:11:15;;;;;;;8.63;5.13;;;;;;;13.72;76.93;98652.91;4985634;28;20096;-63
2023/01/20 07:13:41;;;;;;;16.65;5.55;;;;;;;13.70;77.25;98649.63;4994053;28;20109;-62
2023/01/20 07:16:07;;;;;;;7.88;4.68;;;;;;;13.64;77.86;98655.78;4995095;28;20053;-64
2023/01/20 07:18:32;;;;;;;11.30;5.32;;;;;;;13.71;78.05;98645.94;4993032;28;20038;-64
2023/01/20 07:20:59;;;;;;;7.80;4.30;;;;;;;13.83;75.46;98635.47;4993952;28;20038;-63
2023/01/20 07:23:24;;;;;;;9.85;4.65;;;;;;;13.97;76.29;98627.22;4992080;28;20034;-63
2023/01/20 07:26:01;;;;;;;9.65;4.43;;;;;;;14.05;74.60;98658.13;4994094;28;20049;-63
2023/01/20 07:28:27;;;;;;;9.82;4.85;;;;;;;14.17;74.17;98651.09;4994634;28;20034;-63
2023/01/20 07:30:53;;;;;;;7.80;4.40;;;;;;;14.19;73.57;98643.72;4993450;28;20345;-64
2023/01/20 07:33:18;;;;;;;7.47;4.20;;;;;;;14.16;74.30;98665.44;4994145;28;20034;-64
2023/01/20 07:35:44;;;;;;;8.68;4.45;;;;;;;14.16;75.69;98657.47;4994509;28;20367;-62
2023/01/20 07:38:09;;;;;;;12.73;5.05;;;;;;;14.26;74.87;98644.50;4994696;28;20286;-63
2023/01/20 07:40:35;;;;;;;11.07;5.30;;;;;;;14.29;75.29;98660.06;4992260;28;20038;-63
2023/01/20 07:43:03;;;;;;;10.10;4.03;;;;;;;14.17;74.49;98676.91;4993338;28;20030;-63
2023/01/20 07:45:28;;;;;;;9.55;4.50;;;;;;;14.07;75.46;98667.53;4993406;28;20030;-63
2023/01/20 07:47:55;;;;;;;8.95;3.80;;;;;;;14.03;74.67;98681.47;4991661;28;20254;-62
2023/01/20 07:50:21;;;;;;;9.27;4.10;;;;;;;13.90;77.93;98686.84;4993630;28;20026;-64
2023/01/20 07:52:46;;;;;;;7.38;3.28;;;;;;;13.80;77.98;98689.94;4991831;28;20390;-64
2023/01/20 07:55:12;;;;;;;7.70;3.50;;;;;;;13.78;79.61;98715.09;4994081;28;20026;-63
2023/01/20 07:57:37;;;;;;;9.02;3.75;;;;;;;13.76;76.68;98711.84;4992320;28;20065;-62
2023/01/20 08:00:04;;;;;;;8.48;4.28;;;;;;;13.75;77.87;98721.66;4992268;28;20064;-63
2023/01/20 08:02:30;;;;;;;7.00;3.78;;;;;;;13.81;77.27;98720.81;4989668;28;20110;-64
2023/01/20 08:04:55;;;;;;;5.15;2.47;;;;;;;13.68;79.30;98732.31;4993291;28;20026;-62
2023/01/20 08:07:20;;;;;;;8.82;5.18;;;;;;;13.78;80.63;98750.50;4991240;28;20343;-62
2023/01/20 08:09:47;;;;;;;9.63;5.47;;;;;;;13.81;81.58;98775.88;4991822;28;20042;-63
2023/01/20 08:12:12;;;;;;;13.93;6.35;;;;;;;14.08;85.45;98812.09;4992154;28;20060;-65
2023/01/20 08:14:38;;;;;;;5.85;2.90;;;;;;;13.85;82.76;98844.44;4992626;28;20030;-62
2023/01/20 08:17:03;;;;;;;5.25;3.17;;;;;;;13.45;87.03;98858.72;4989955;28;20042;-61
2023/01/20 08:19:28;;;;;;;4.40;2.00;;;;;;;13.13;90.63;98860.25;4990966;28;20334;-62
2023/01/20 08:21:54;;;;;;;6.78;2.35;;;;;;;12.69;94.92;98880.91;4990969;28;20345;-66
2023/01/20 08:24:20;;;;;;;4.13;2.67;;;;;;;12.41;99.50;98893.38;4989921;28;20235;-64
2023/01/20 08:26:45;;;;;;;3.95;2.50;;;;;;;12.23;100.00;98903.66;4992501;28;20042;-64
2023/01/20 08:29:11;;;;;;;5.40;2.53;;;;;;;12.17;100.00;98893.81;4996062;28;20045;-64
2023/01/20 08:31:36;;;;;;;4.75;2.85;;;;;;;12.24;100.00;98898.16;4996077;28;20359;-64
2023/01/20 08:34:02;;;;;;;6.90;2.90;;;;;;;12.35;100.00;98910.09;5004504;28;20138;-64
2023/01/20 08:36:30;;;;;;;6.13;3.40;;;;;;;12.39;100.00;98901.53;4996136;28;20038;-63
2023/01/20 08:38:57;;;;;;;7.93;3.40;;;;;;;12.55;100.00;98892.47;4996150;28;20058;-61
2023/01/20 08:41:32;;;;;;;4.90;3.33;;;;;;;12.62;100.00;98889.84;4996779;28;20238;-62
2023/01/20 08:43:59;;;;;;;4.50;2.88;;;;;;;12.63;100.00;98857.78;4996849;28;20058;-62
2023/01/20 08:46:24;;;;;;;3.78;1.50;;;;;;;12.51;100.00;98846.09;4996764;28;20042;-63
2023/01/20 08:48:51;;;;;;;4.10;1.85;;;;;;;12.67;100.00;98829.81;4996077;28;20053;-64
2023/01/20 08:51:20;;;;;;;2.65;1.50;;;;;;;12.90;100.00;98828.69;4996188;28;20046;-65
2023/01/20 08:53:47;;;;;;;6.07;2.53;;;;;;;12.97;100.00;98826.88;4995912;28;20225;-64
2023/01/20 08:56:13;;;;;;;4.22;2.90;;;;;;;13.05;100.00;98832.00;4996344;28;20389;-63
2023/01/20 08:58:39;;;;;;;6.88;3.72;;;;;;;13.13;100.00;98820.38;4995575;28;20378;-63
2023/01/20 09:01:16;;;;;;;9.18;5.35;;;;;;;13.19;99.92;98816.94;4996631;28;20054;-62
2023/01/20 09:03:42;;;;;;;9.55;5.07;;;;;;;13.14;99.86;98814.03;4995074;28;20089;-63
2023/01/20 09:06:09;;;;;;;12.32;6.93;;;;;;;13.26;99.10;98815.13;4996946;28;20038;-63
2023/01/20 09:08:36;;;;;;;14.48;9.02;;;;;;;13.35;98.83;98808.59;4996482;28;20209;-63
2023/01/20 09:11:25;;;;;;;12.48;6.88;;;;;;;13.50;95.26;98782.63;4997054;28;20125;-62
2023/01/20 09:13:51;;;;;;;9.63;5.25;;;;;;;13.38;96.11;98776.28;4996685;28;20030;-64
2023/01/20 09:16:18;;;;;;;5.55;2.90;;;;;;;13.17;94.90;98763.16;4996927;28;20331;-62
2023/01/20 09:18:43;;;;;;;4.53;2.60;;;;;;;12.83;97.17;98770.22;4995616;28;20038;-62
2023/01/20 09:21:09;;;;;;;4.78;2.38;;;;;;;12.87;94.62;98765.31;4996707;28;20046;-64
2023/01/20 09:23:37;;;;;;;4.50;2.40;;;;;;;12.76;98.92;98748.94;4995867;28;20181;-64
2023/01/20 09:26:04;;;;;;;5.70;2.60;;;;;;;12.67;100.00;98739.53;4995774;28;20038;-64
2023/01/20 09:28:30;;;;;;;4.40;1.92;;;;;;;12.27;100.00;98746.47;4996467;28;20042;-61
2023/01/20 09:31:00;;;;;;;3.53;2.20;;;;;;;12.11;100.00;98738.84;4996854;28;20327;-63
2023/01/20 09:33:26;;;;;;;5.30;2.75;;;;;;;11.84;100.00;98714.00;4995632;28;20035;-62
2023/01/20 09:35:58;;;;;;;5.75;2.10;;;;;;;11.60;100.00;98653.44;4995621;28;20061;-62
2023/01/20 09:44:44;;;;;;;4.70;1.98;;;;;;;11.74;96.50;98608.25;4939689;29;20118;-62
2023/01/20 09:47:30;;;;;;;2.80;1.65;;;;;;;11.84;100.00;98586.69;4998522;28;20069;-62
2023/01/20 09:53:26;;;;;;;2.35;1.23;;;;;;;12.30;95.50;98599.28;4999972;28;20175;-64
2023/01/20 09:55:55;;;;;;;2.92;1.13;;;;;;;12.52;96.34;98605.28;4999265;28;20038;-62
2023/01/20 09:58:31;;;;;;;2.15;0.82;;;;;;;12.77;94.32;98601.00;4999035;28;20154;-62
2023/01/20 10:01:11;;;;;;;0.73;0.68;;;;;;;12.94;90.16;98598.75;4998969;28;20041;-61
2023/01/20 10:03:55;;;;;;;1.52;0.57;;;;;;;13.03;82.55;98608.97;4998699;28;20104;-62
2023/01/20 10:06:43;;;;;;;2.33;0.80;;;;;;;12.98;74.82;98611.44;4999426;28;20232;-63
2023/01/20 10:09:32;;;;;;;1.75;0.73;;;;;;;12.98;79.08;98600.00;5000270;28;20383;-63
2023/01/20 10:12:10;;;;;;;0.93;0.60;;;;;;;12.97;80.05;98577.91;5000147;28;20042;-65
2023/01/20 10:14:44;;;;;;;1.30;0.55;;;;;;;12.87;83.30;98564.22;5000230;28;20037;-64
2023/01/20 10:17:09;;;;;;;;;;;;;;;12.75;84.48;98582.63;5000768;28;20026;-63
2023/01/20 10:19:58;;;;;;;1.45;0.80;;;;;;;12.56;97.18;98587.91;5000282;28;19928;-62
2023/01/20 10:22:33;;;;;;;1.88;1.48;;;;;;;12.28;100.00;98588.06;5000197;28;20050;-62
2023/01/20 10:25:19;;;;;;;3.17;1.52;;;;;;;12.21;100.00;98595.19;4998924;28;20947;-63
2023/01/20 10:28:02;;;;;;;4.28;1.65;;;;;;;12.19;100.00;98589.25;4991767;28;20046;-62
2023/01/20 10:30:34;;;;;;;2.30;1.13;;;;;;;12.07;100.00;98589.00;4993543;28;20094;-64
2023/01/20 10:33:09;;;;;;;2.38;1.00;;;;;;;12.08;100.00;98591.47;4992445;28;20038;-64
2023/01/20 10:35:40;;;;;;;3.05;0.85;;;;;;;12.07;100.00;98610.25;4994071;28;20038;-62
2023/01/20 10:38:07;;;;;;;2.67;1.15;;;;;;;12.20;100.00;98591.72;4992508;28;20057;-63
2023/01/20 10:40:39;;;;;;;0.77;0.70;;;;;;;12.22;100.00;98616.22;4993658;28;20030;-63
2023/01/20 10:43:13;;;;;;;2.33;0.98;;;;;;;12.27;100.00;98605.00;4994528;28;20358;-63
2023/01/20 10:45:41;;;;;;;0.40;0.40;;;;;;;12.34;100.00;98588.06;4994620;28;20083;-65
2023/01/20 10:48:22;;;;;;;1.48;0.60;;;;;;;12.37;99.64;98585.00;4992127;28;20231;-65
2023/01/20 10:51:21;;;;;;;1.65;0.70;;;;;;;12.47;97.16;98561.53;4989097;28;20045;-62
2023/01/20 10:54:08;;;;;;;1.60;0.60;;;;;;;12.50;96.04;98573.63;4992575;28;20322;-63
2023/01/20 10:56:41;;;;;;;1.63;1.17;;;;;;;12.40;95.06;98576.63;4992948;28;20068;-62
2023/01/20 10:59:19;;;;;;;3.10;1.35;;;;;;;12.49;99.28;98589.75;4993115;28;20038;-63
2023/01/20 11:01:49;;;;;;;2.63;0.80;;;;;;;12.48;95.79;98580.94;4990797;28;20136;-63
2023/01/20 11:04:18;;;;;;;1.13;0.82;;;;;;;12.62;96.15;98564.03;4993388;28;20084;-63
2023/01/20 11:06:51;;;;;;;3.65;0.90;;;;;;;12.61;94.99;98550.94;4991011;28;20457;-63
2023/01/20 11:09:23;;;;;;;0.53;0.53;;;;;;;12.42;96.39;98549.88;4992289;28;20030;-65
2023/01/20 11:11:50;;;;;;;1.95;1.33;;;;;;;12.34;96.60;98544.78;4992540;28;20902;-61
2023/01/20 11:14:16;;;;;;;4.32;1.52;;;;;;;12.32;100.00;98530.88;4992189;28;20030;-62
2023/01/20 11:16:45;;;;;;;3.90;1.02;;;;;;;12.36;96.91;98532.94;4993688;28;20050;-62
2023/01/20 11:19:11;;;;;;;1.25;0.90;;;;;;;12.30;96.10;98522.31;4993912;28;20034;-63
2023/01/20 11:21:36;;;;;;;1.58;0.73;;;;;;;12.49;97.13;98515.41;4991648;28;20042;-64
2023/01/20 11:24:37;;;;;;;2.70;1.05;;;;;;;12.59;96.93;98511.31;4993697;28;20038;-61
2023/01/20 11:27:04;;;;;;;2.25;0.30;;;;;;;12.57;87.45;98516.03;4988047;28;20050;-63
2023/01/20 11:29:39;;;;;;;1.42;0.50;;;;;;;12.58;86.88;98500.91;4993277;28;20104;-64
2023/01/20 11:32:33;;;;;;;3.75;0.90;;;;;;;12.59;87.66;98513.16;4990494;28;20289;-64
2023/01/20 11:35:00;;;;;;;0.80;0.30;;;;;;;12.66;85.96;98514.78;4993593;28;20061;-63
2023/01/20 11:37:35;;;;;;;1.48;0.47;;;;;;;12.65;82.78;98507.84;4990605;28;20117;-63
2023/01/20 11:40:16;;;;;;;1.08;0.40;;;;;;;12.70;88.63;98502.72;4991457;28;20037;-64
2023/01/20 11:42:44;;;;;;;1.70;0.60;;;;;;;12.78;87.67;98481.28;4992408;28;20042;-63
2023/01/20 11:45:35;;;;;;;0.77;0.40;;;;;;;12.62;84.57;98465.78;4997126;28;20038;-63
2023/01/20 11:48:13;;;;;;;1.38;0.65;;;;;;;12.57;84.47;98464.75;4996398;28;20391;-63
2023/01/20 11:50:56;;;;;;;0.57;0.28;;;;;;;12.46;84.30;98474.94;4997923;28;20069;-63
2023/01/20 11:53:26;;;;;;;2.08;0.47;;;;;;;12.47;85.09;98465.97;4998328;28;20038;-63